Time;durP1;ratioP1;P1;durP2;ratioP2;P2;SDS_P1;SDS_P2;PMS_P1;PMS_P2;Temp;Humidity;BMP_temperature;BMP_pressure;BME280_temperature;BME280_humidity;BME280_pressure;Samples;Min_cycle;Max_cycle;Signal;HPM_P1;HPM_P2
2023/01/07 00:01:37;;;;;;;0.50;0.50;;;8.60;99.90;;;;;;5091311;28;20427;-78
2023/01/07 00:04:06;;;;;;;0.50;0.30;;;8.60;99.90;;;;;;5073757;28;20470;-78
2023/01/07 00:06:38;;;;;;;0.40;0.20;;;8.60;99.90;;;;;;5079235;28;20506;-78
2023/01/07 00:09:06;;;;;;;0.40;0.40;;;8.60;99.90;;;;;;5078136;28;20459;-78
2023/01/07 00:11:36;;;;;;;0.20;0.20;;;8.60;99.90;;;;;;5106355;28;20425;-78
2023/01/07 00:14:05;;;;;;;0.20;0.20;;;8.60;99.90;;;;;;5079503;28;20432;-78
2023/01/07 00:16:39;;;;;;;0.80;0.40;;;8.60;99.90;;;;;;5100374;28;20473;-78
2023/01/07 00:19:07;;;;;;;0.20;0.20;;;8.60;99.90;;;;;;5085949;28;20433;-79
2023/01/07 00:21:34;;;;;;;0.38;0.38;;;8.60;99.90;;;;;;5074312;28;20522;-78
2023/01/07 00:24:05;;;;;;;0.30;0.30;;;8.60;99.90;;;;;;5088445;28;20431;-78
2023/01/07 00:26:34;;;;;;;0.45;0.45;;;8.60;99.90;;;;;;5085329;28;20429;-78
2023/01/07 00:29:04;;;;;;;0.55;0.45;;;8.50;99.90;;;;;;5100629;28;20424;-78
2023/01/07 00:31:33;;;;;;;0.50;0.50;;;8.50;99.90;;;;;;5091913;28;20921;-78
2023/01/07 00:36:40;;;;;;;0.30;0.30;;;8.60;99.90;;;;;;5084618;28;20460;-78
2023/01/07 00:39:19;;;;;;;0.70;0.35;;;8.60;99.90;;;;;;5075794;28;20423;-78
2023/01/07 00:44:33;;;;;;;0.40;0.40;;;8.60;99.90;;;;;;5073171;28;20866;-78
2023/01/07 00:47:00;;;;;;;0.40;0.40;;;8.60;99.90;;;;;;5078283;28;20425;-78
2023/01/07 00:49:27;;;;;;;0.30;0.30;;;8.60;99.90;;;;;;5080871;28;20858;-78
2023/01/07 00:51:53;;;;;;;0.30;0.30;;;8.60;99.90;;;;;;5101478;28;20489;-78
2023/01/07 00:54:20;;;;;;;0.20;0.20;;;8.60;99.90;;;;;;5093325;28;20475;-78
2023/01/07 00:56:47;;;;;;;0.20;0.20;;;8.60;99.90;;;;;;5075712;28;20898;-79
2023/01/07 00:59:14;;;;;;;1.40;0.30;;;8.60;99.90;;;;;;5074666;28;20506;-78
2023/01/07 01:01:40;;;;;;;0.40;0.40;;;8.60;99.90;;;;;;5097049;28;20420;-78
2023/01/07 01:04:07;;;;;;;0.22;0.22;;;8.50;99.90;;;;;;5073333;28;20424;-78
2023/01/07 01:06:34;;;;;;;0.40;0.40;;;8.50;99.90;;;;;;5073001;28;20445;-78
2023/01/07 01:09:01;;;;;;;0.55;0.55;;;8.50;99.90;;;;;;5087234;28;20432;-78
2023/01/07 01:11:28;;;;;;;0.50;0.50;;;8.50;99.90;;;;;;5104610;28;20426;-78
2023/01/07 01:13:54;;;;;;;0.20;0.20;;;8.50;99.90;;;;;;5084116;28;20467;-78
2023/01/07 01:16:21;;;;;;;0.80;0.57;;;8.50;99.90;;;;;;5078203;28;20434;-79
2023/01/07 01:18:48;;;;;;;0.70;0.40;;;8.50;99.90;;;;;;5096876;28;20469;-78
2023/01/07 01:21:16;;;;;;;0.30;0.30;;;8.50;99.90;;;;;;5085970;28;20440;-78
2023/01/07 01:23:43;;;;;;;0.30;0.30;;;8.50;99.90;;;;;;5092912;28;20433;-78
2023/01/07 01:26:15;;;;;;;0.70;0.70;;;8.50;99.90;;;;;;5091195;28;20433;-79
2023/01/07 01:28:42;;;;;;;0.40;0.40;;;8.50;99.90;;;;;;5075598;28;20951;-78
2023/01/07 01:31:10;;;;;;;0.40;0.40;;;8.50;99.90;;;;;;5085120;28;20540;-79
2023/01/07 01:33:38;;;;;;;0.30;0.30;;;8.50;99.90;;;;;;5076721;28;20907;-78
2023/01/07 01:36:08;;;;;;;1.20;0.32;;;8.50;99.90;;;;;;5095681;28;20457;-78
2023/01/07 01:38:36;;;;;;;0.30;0.30;;;8.50;99.90;;;;;;5080564;28;20416;-78
2023/01/07 01:41:03;;;;;;;0.40;0.40;;;8.50;99.90;;;;;;5100581;28;21018;-78
2023/01/07 01:43:36;;;;;;;0.30;0.25;;;8.50;99.90;;;;;;5092503;28;20924;-78
2023/01/07 01:46:11;;;;;;;0.30;0.30;;;8.50;99.90;;;;;;5078821;28;20442;-79
2023/01/07 01:48:43;;;;;;;0.40;0.40;;;8.40;99.90;;;;;;5074240;28;20423;-78
2023/01/07 01:51:13;;;;;;;0.20;0.20;;;8.40;99.90;;;;;;5094843;28;20447;-78
2023/01/07 01:53:40;;;;;;;0.55;0.55;;;8.40;99.90;;;;;;5083729;28;20463;-78
2023/01/07 01:56:34;;;;;;;0.50;0.50;;;8.30;99.90;;;;;;5089568;28;20423;-78
2023/01/07 01:59:11;;;;;;;0.28;0.28;;;8.30;99.90;;;;;;5087818;28;20460;-79
2023/01/07 02:01:37;;;;;;;0.30;0.30;;;8.30;99.90;;;;;;5087386;28;20912;-78
2023/01/07 02:04:10;;;;;;;0.20;0.20;;;8.30;99.90;;;;;;5090355;28;20905;-78
2023/01/07 02:07:03;;;;;;;0.55;0.45;;;8.40;99.90;;;;;;5090213;28;20427;-79
2023/01/07 02:09:31;;;;;;;0.30;0.30;;;8.40;99.90;;;;;;5089703;28;20429;-78
2023/01/07 02:12:00;;;;;;;0.32;0.32;;;8.40;99.90;;;;;;5093219;28;20431;-78
2023/01/07 02:14:52;;;;;;;0.50;0.50;;;8.40;99.90;;;;;;5082307;28;20436;-79
2023/01/07 02:17:45;;;;;;;0.30;0.30;;;8.40;99.90;;;;;;5081297;28;20423;-79
2023/01/07 02:20:29;;;;;;;0.70;0.30;;;8.30;99.90;;;;;;5083806;28;20473;-78
2023/01/07 02:23:28;;;;;;;0.40;0.40;;;8.30;99.90;;;;;;5092143;28;20893;-78
2023/01/07 02:26:09;;;;;;;0.50;0.50;;;8.30;99.90;;;;;;5081071;28;20426;-78
2023/01/07 02:29:14;;;;;;;0.28;0.28;;;8.30;99.90;;;;;;5086214;28;20510;-78
2023/01/07 02:31:44;;;;;;;2.20;0.60;;;8.20;99.90;;;;;;5072212;28;20523;-78
2023/01/07 02:34:17;;;;;;;1.10;0.50;;;8.20;99.90;;;;;;5071073;28;20427;-78
2023/01/07 02:37:03;;;;;;;0.30;0.30;;;8.20;99.90;;;;;;5095727;28;20511;-78
2023/01/07 02:40:02;;;;;;;0.60;0.60;;;8.30;99.90;;;;;;5090109;28;20817;-78
2023/01/07 02:42:50;;;;;;;1.50;0.40;;;8.30;99.90;;;;;;5090765;28;20814;-78
2023/01/07 02:45:27;;;;;;;0.60;0.30;;;8.20;99.90;;;;;;5098436;28;20520;-78
2023/01/07 02:47:58;;;;;;;0.40;0.40;;;8.20;99.90;;;;;;5090905;28;20504;-78
2023/01/07 02:50:25;;;;;;;0.28;0.28;;;8.20;99.90;;;;;;5087975;28;20939;-79
2023/01/07 02:52:52;;;;;;;1.13;0.43;;;8.20;99.90;;;;;;5071625;28;20451;-78
2023/01/07 02:55:38;;;;;;;0.60;0.60;;;8.20;99.90;;;;;;5071660;28;20435;-78
2023/01/07 02:58:23;;;;;;;1.10;1.00;;;8.20;99.90;;;;;;5075781;28;20857;-78
2023/01/07 03:01:24;;;;;;;1.83;0.55;;;8.20;99.90;;;;;;5082208;28;20426;-79
2023/01/07 03:04:09;;;;;;;0.50;0.50;;;8.10;99.90;;;;;;5070660;28;20439;-78
2023/01/07 03:06:53;;;;;;;0.50;0.50;;;8.10;99.90;;;;;;5087238;28;20435;-78
2023/01/07 03:09:45;;;;;;;0.30;0.30;;;8.10;99.90;;;;;;5094233;28;20472;-79
2023/01/07 03:12:26;;;;;;;0.80;0.35;;;8.10;99.90;;;;;;5072275;28;20431;-79
2023/01/07 03:15:01;;;;;;;0.20;0.20;;;8.10;99.90;;;;;;5084241;28;20428;-78
2023/01/07 03:17:39;;;;;;;0.35;0.35;;;8.10;99.90;;;;;;5091389;28;20429;-78
2023/01/07 03:20:06;;;;;;;0.43;0.43;;;8.10;99.90;;;;;;5074901;28;20477;-78
2023/01/07 03:22:36;;;;;;;0.40;0.40;;;8.00;99.90;;;;;;5084630;28;20427;-78
2023/01/07 03:25:05;;;;;;;0.40;0.40;;;8.00;99.90;;;;;;5088965;28;20434;-78
2023/01/07 03:27:35;;;;;;;0.68;0.68;;;8.00;99.90;;;;;;5084539;28;20439;-78
2023/01/07 03:30:08;;;;;;;0.43;0.43;;;8.00;99.90;;;;;;5094382;28;20512;-78
2023/01/07 03:32:56;;;;;;;1.00;0.50;;;8.00;99.90;;;;;;5091280;28;20445;-78
2023/01/07 03:35:29;;;;;;;0.50;0.50;;;8.00;99.90;;;;;;5077968;28;20431;-78
2023/01/07 03:37:59;;;;;;;0.30;0.30;;;8.00;99.90;;;;;;5084514;28;20501;-78
2023/01/07 03:40:26;;;;;;;0.83;0.43;;;8.00;99.90;;;;;;5071107;28;20427;-78
2023/01/07 03:42:53;;;;;;;0.50;0.50;;;7.90;99.90;;;;;;5071282;28;20434;-78
2023/01/07 03:45:22;;;;;;;1.17;0.47;;;7.90;99.90;;;;;;5087019;28;20430;-78
2023/01/07 03:47:51;;;;;;;0.70;0.60;;;7.90;99.90;;;;;;5091671;28;20430;-78
2023/01/07 03:50:18;;;;;;;0.40;0.40;;;7.90;99.90;;;;;;5085843;28;20442;-78
2023/01/07 03:52:47;;;;;;;0.50;0.50;;;7.90;99.90;;;;;;5079406;28;20510;-78
2023/01/07 03:55:14;;;;;;;0.60;0.60;;;7.90;99.90;;;;;;5100883;28;20546;-78
2023/01/07 03:57:46;;;;;;;0.68;0.68;;;7.90;99.90;;;;;;5091661;28;20472;-79
2023/01/07 04:00:14;;;;;;;0.47;0.47;;;7.90;99.90;;;;;;5112964;28;20432;-78
2023/01/07 04:02:43;;;;;;;0.57;0.57;;;7.90;99.90;;;;;;5099227;28;20515;-78
2023/01/07 04:05:10;;;;;;;0.53;0.53;;;7.90;99.90;;;;;;5074667;28;20506;-78
2023/01/07 04:07:40;;;;;;;0.53;0.53;;;7.90;99.90;;;;;;5075766;28;20435;-78
2023/01/07 04:10:08;;;;;;;0.55;0.55;;;7.90;99.90;;;;;;5088118;28;20507;-78
2023/01/07 04:12:35;;;;;;;0.60;0.57;;;7.90;99.90;;;;;;5100410;28;20834;-78
2023/01/07 04:15:03;;;;;;;0.47;0.47;;;7.90;99.90;;;;;;5092589;28;20939;-78
2023/01/07 04:17:30;;;;;;;0.47;0.47;;;7.90;99.90;;;;;;5094580;28;20800;-78
2023/01/07 04:19:57;;;;;;;0.40;0.40;;;7.90;99.90;;;;;;5095154;28;20428;-79
2023/01/07 04:22:26;;;;;;;0.60;0.60;;;7.90;99.90;;;;;;5094195;28;20475;-79
2023/01/07 04:24:53;;;;;;;0.30;0.30;;;7.90;99.90;;;;;;5085567;28;20650;-78
2023/01/07 04:27:20;;;;;;;2.20;0.40;;;7.90;99.90;;;;;;5074836;28;20462;-78
2023/01/07 04:29:46;;;;;;;1.52;0.60;;;8.00;99.90;;;;;;5083976;28;20432;-78
2023/01/07 04:32:13;;;;;;;0.85;0.85;;;8.00;99.90;;;;;;5087273;28;20427;-78
2023/01/07 04:34:40;;;;;;;0.70;0.70;;;8.00;99.90;;;;;;5087014;28;20429;-78
2023/01/07 04:37:10;;;;;;;0.95;0.57;;;8.00;99.90;;;;;;5075584;28;20459;-77
2023/01/07 04:39:36;;;;;;;0.60;0.60;;;7.90;99.90;;;;;;5093052;28;20477;-77
2023/01/07 04:42:03;;;;;;;0.40;0.40;;;8.00;99.90;;;;;;5074488;28;20432;-77
2023/01/07 04:44:30;;;;;;;0.60;0.60;;;7.90;99.90;;;;;;5071317;28;20446;-77
2023/01/07 04:46:56;;;;;;;0.90;0.77;;;7.90;99.90;;;;;;5091194;28;20422;-77
2023/01/07 04:49:23;;;;;;;0.80;0.43;;;7.90;99.90;;;;;;5086012;28;20912;-77
2023/01/07 04:51:50;;;;;;;0.70;0.60;;;7.90;99.90;;;;;;5105953;28;20459;-76
2023/01/07 04:54:17;;;;;;;0.53;0.53;;;7.90;99.90;;;;;;5073126;28;21192;-76
2023/01/07 04:56:44;;;;;;;0.50;0.50;;;7.90;99.90;;;;;;5102517;28;20431;-76
2023/01/07 04:59:11;;;;;;;1.20;0.40;;;7.90;99.90;;;;;;5087991;28;20433;-77
2023/01/07 05:01:38;;;;;;;0.40;0.40;;;7.90;99.90;;;;;;5093431;28;20459;-76
2023/01/07 05:04:05;;;;;;;0.57;0.52;;;7.90;99.90;;;;;;5091088;28;20430;-77
2023/01/07 05:06:32;;;;;;;0.50;0.50;;;7.90;99.90;;;;;;5101372;28;20422;-77
2023/01/07 05:08:58;;;;;;;0.40;0.40;;;7.90;99.90;;;;;;5092328;28;20985;-76
2023/01/07 05:11:25;;;;;;;0.65;0.65;;;7.90;99.90;;;;;;5096504;28;20881;-76
2023/01/07 05:13:52;;;;;;;0.30;0.30;;;7.90;99.90;;;;;;5086815;28;20423;-77
2023/01/07 05:16:19;;;;;;;0.40;0.40;;;7.90;99.90;;;;;;5084832;28;20429;-77
2023/01/07 05:18:51;;;;;;;0.60;0.60;;;7.90;99.90;;;;;;5091115;28;20452;-76
2023/01/07 05:21:18;;;;;;;0.50;0.50;;;7.80;99.90;;;;;;5096353;28;20422;-77
2023/01/07 05:23:48;;;;;;;0.67;0.67;;;7.90;99.90;;;;;;5088820;28;20434;-77
2023/01/07 05:26:15;;;;;;;0.73;0.73;;;7.90;99.90;;;;;;5095817;28;20517;-77
2023/01/07 05:28:42;;;;;;;0.60;0.43;;;7.90;99.90;;;;;;5077342;28;20436;-77
2023/01/07 05:31:11;;;;;;;0.20;0.20;;;7.90;99.90;;;;;;5083068;28;20513;-77
2023/01/07 05:33:37;;;;;;;0.47;0.47;;;7.90;99.90;;;;;;5094077;28;20426;-78
2023/01/07 05:36:06;;;;;;;0.52;0.50;;;7.90;99.90;;;;;;5086627;28;20430;-78
2023/01/07 05:38:33;;;;;;;1.08;0.60;;;7.90;99.90;;;;;;5076529;28;20836;-78
2023/01/07 05:41:00;;;;;;;0.85;0.82;;;7.90;99.90;;;;;;5092503;28;20981;-77
2023/01/07 05:43:27;;;;;;;0.65;0.65;;;7.80;99.90;;;;;;5097719;28;20915;-77
2023/01/07 05:45:59;;;;;;;0.50;0.50;;;7.80;99.90;;;;;;5074948;28;20529;-77
2023/01/07 05:48:26;;;;;;;0.40;0.40;;;7.80;99.90;;;;;;5075455;28;20427;-77
2023/01/07 05:50:53;;;;;;;3.10;0.80;;;7.80;99.90;;;;;;5075134;28;20510;-77
2023/01/07 05:53:20;;;;;;;0.50;0.50;;;7.80;99.90;;;;;;5088319;28;20426;-77
2023/01/07 05:55:46;;;;;;;0.60;0.60;;;7.80;99.90;;;;;;5078025;28;20434;-77
2023/01/07 05:58:16;;;;;;;0.40;0.40;;;7.90;99.90;;;;;;5081251;28;20425;-77
2023/01/07 06:00:46;;;;;;;0.80;0.60;;;7.90;99.90;;;;;;5072727;28;20430;-78
2023/01/07 06:03:13;;;;;;;0.65;0.65;;;7.90;99.90;;;;;;5072698;28;20450;-77
2023/01/07 06:05:40;;;;;;;3.80;0.80;;;7.90;99.90;;;;;;5071544;28;20432;-77
2023/01/07 06:08:09;;;;;;;0.50;0.50;;;7.90;99.90;;;;;;5075465;28;20421;-77
2023/01/07 06:10:44;;;;;;;0.52;0.52;;;7.90;99.90;;;;;;5079610;28;20543;-77
2023/01/07 06:13:11;;;;;;;0.57;0.57;;;7.90;99.90;;;;;;5072693;28;20837;-77
2023/01/07 06:15:37;;;;;;;0.32;0.32;;;7.90;99.90;;;;;;5071523;28;20424;-77
2023/01/07 06:18:07;;;;;;;1.60;0.60;;;7.90;99.90;;;;;;5078501;28;20461;-78
2023/01/07 06:20:33;;;;;;;1.10;0.70;;;7.90;99.90;;;;;;5082796;28;20495;-77
2023/01/07 06:23:03;;;;;;;0.60;0.60;;;7.90;99.90;;;;;;5082056;28;20453;-77
2023/01/07 06:25:29;;;;;;;0.50;0.40;;;7.90;99.90;;;;;;5073875;28;20607;-78
2023/01/07 06:27:57;;;;;;;0.40;0.40;;;7.90;99.90;;;;;;5083065;28;20436;-78
2023/01/07 06:30:27;;;;;;;0.60;0.60;;;7.90;99.90;;;;;;5082813;28;20439;-78
2023/01/07 06:32:56;;;;;;;1.05;0.98;;;7.90;99.90;;;;;;5096231;28;20461;-78
2023/01/07 06:35:23;;;;;;;0.65;0.50;;;7.90;99.90;;;;;;5093772;28;20426;-77
2023/01/07 06:37:50;;;;;;;0.63;0.63;;;7.90;99.90;;;;;;5082210;28;20475;-78
2023/01/07 06:40:17;;;;;;;0.60;0.60;;;7.90;99.90;;;;;;5078059;28;20915;-78
2023/01/07 06:42:43;;;;;;;0.90;0.90;;;7.90;99.90;;;;;;5090135;28;20472;-78
2023/01/07 06:45:11;;;;;;;0.50;0.50;;;7.90;99.90;;;;;;5107582;28;20424;-79
2023/01/07 06:47:38;;;;;;;0.80;0.60;;;7.80;99.90;;;;;;5090612;28;20511;-78
2023/01/07 06:50:05;;;;;;;0.50;0.43;;;7.80;99.90;;;;;;5080020;28;20427;-78
2023/01/07 06:52:33;;;;;;;0.60;0.60;;;7.80;99.90;;;;;;5087846;28;20443;-75
2023/01/07 06:54:59;;;;;;;0.70;0.70;;;7.80;99.90;;;;;;5083446;28;20510;-75
2023/01/07 06:57:26;;;;;;;0.60;0.60;;;7.80;99.90;;;;;;5085561;28;20427;-75
2023/01/07 06:59:53;;;;;;;0.60;0.52;;;7.80;99.90;;;;;;5076524;28;20426;-75
2023/01/07 07:02:22;;;;;;;0.50;0.50;;;7.80;99.90;;;;;;5069313;28;20423;-75
2023/01/07 07:04:49;;;;;;;2.17;1.13;;;7.80;99.90;;;;;;5085777;28;20440;-75
2023/01/07 07:07:16;;;;;;;0.40;0.40;;;7.80;99.90;;;;;;5071016;28;20439;-76
2023/01/07 07:09:43;;;;;;;0.68;0.68;;;7.80;99.90;;;;;;5081586;28;20431;-75
2023/01/07 07:12:10;;;;;;;0.50;0.40;;;7.80;99.90;;;;;;5086540;28;20915;-75
2023/01/07 07:14:39;;;;;;;0.65;0.60;;;7.80;99.90;;;;;;5077136;28;20443;-75
2023/01/07 07:17:06;;;;;;;0.40;0.40;;;7.80;99.90;;;;;;5090635;28;20456;-75
2023/01/07 07:19:33;;;;;;;0.63;0.63;;;7.90;99.90;;;;;;5089943;28;20437;-75
2023/01/07 07:22:00;;;;;;;0.50;0.50;;;7.90;99.90;;;;;;5084693;28;20427;-74
2023/01/07 07:24:29;;;;;;;0.50;0.50;;;7.90;99.90;;;;;;5069443;28;20466;-75
2023/01/07 07:26:56;;;;;;;0.40;0.40;;;7.90;99.90;;;;;;5078687;28;20428;-75
2023/01/07 07:29:22;;;;;;;0.80;0.50;;;8.00;99.90;;;;;;5077525;28;20424;-75
2023/01/07 07:31:49;;;;;;;0.73;0.57;;;8.00;99.90;;;;;;5075940;28;20426;-75
2023/01/07 07:34:21;;;;;;;0.60;0.60;;;8.00;99.90;;;;;;5077725;28;20419;-76
2023/01/07 07:36:48;;;;;;;0.60;0.60;;;8.00;99.90;;;;;;5092634;28;20427;-75
2023/01/07 07:39:14;;;;;;;0.60;0.60;;;8.10;99.90;;;;;;5083871;28;20425;-76
2023/01/07 07:41:41;;;;;;;0.50;0.50;;;8.10;99.90;;;;;;5096686;28;20963;-74
2023/01/07 07:44:09;;;;;;;0.70;0.70;;;8.10;99.90;;;;;;5071682;28;21210;-75
2023/01/07 07:46:35;;;;;;;0.50;0.50;;;8.10;99.90;;;;;;5073896;28;20861;-75
2023/01/07 07:49:02;;;;;;;1.27;0.68;;;8.10;99.90;;;;;;5078696;28;20429;-76
2023/01/07 07:51:30;;;;;;;1.05;0.60;;;8.20;99.90;;;;;;5083273;28;20431;-76
2023/01/07 07:53:56;;;;;;;1.33;0.60;;;8.20;99.90;;;;;;5070324;28;20435;-76
2023/01/07 07:56:23;;;;;;;0.60;0.60;;;8.20;99.90;;;;;;5080611;28;20508;-76
2023/01/07 07:58:50;;;;;;;0.60;0.60;;;8.30;99.90;;;;;;5087636;28;20431;-75
2023/01/07 08:01:17;;;;;;;0.60;0.60;;;8.30;99.90;;;;;;5079590;28;20444;-77
2023/01/07 08:03:43;;;;;;;0.52;0.52;;;8.30;99.90;;;;;;5076936;28;20434;-75
2023/01/07 08:06:11;;;;;;;0.60;0.60;;;8.30;99.90;;;;;;5072686;28;20521;-76
2023/01/07 08:08:38;;;;;;;0.55;0.55;;;8.30;99.90;;;;;;5069632;28;20447;-75
2023/01/07 08:11:05;;;;;;;0.70;0.70;;;8.30;99.90;;;;;;5092298;28;20516;-74
2023/01/07 08:13:32;;;;;;;0.50;0.50;;;8.30;99.90;;;;;;5080577;28;20437;-74
2023/01/07 08:15:58;;;;;;;0.70;0.60;;;8.30;99.90;;;;;;5081722;28;20457;-74
2023/01/07 08:18:25;;;;;;;0.60;0.60;;;8.30;99.90;;;;;;5072729;28;20512;-74
2023/01/07 08:20:54;;;;;;;0.28;0.28;;;8.30;99.90;;;;;;5082032;28;20434;-74
2023/01/07 08:23:20;;;;;;;0.50;0.50;;;8.30;99.90;;;;;;5082692;28;20429;-74
2023/01/07 08:25:47;;;;;;;0.50;0.50;;;8.30;99.90;;;;;;5082405;28;20431;-74
2023/01/07 08:28:14;;;;;;;0.80;0.50;;;8.30;99.90;;;;;;5077271;28;20434;-75
2023/01/07 08:30:41;;;;;;;0.75;0.70;;;8.30;99.90;;;;;;5078672;28;20439;-75
2023/01/07 08:33:11;;;;;;;0.50;0.50;;;8.30;99.90;;;;;;5092625;28;20476;-74
2023/01/07 08:35:38;;;;;;;0.85;0.85;;;8.30;99.90;;;;;;5075697;28;20434;-74
2023/01/07 08:38:07;;;;;;;0.70;0.70;;;8.30;99.90;;;;;;5083760;28;20417;-75
2023/01/07 08:40:35;;;;;;;0.60;0.60;;;8.30;99.90;;;;;;5090424;28;20528;-75
2023/01/07 08:43:04;;;;;;;1.00;0.70;;;8.30;99.90;;;;;;5095530;28;20426;-74
2023/01/07 08:45:31;;;;;;;0.40;0.40;;;8.20;99.90;;;;;;5087844;28;20458;-75
2023/01/07 08:47:58;;;;;;;0.82;0.82;;;8.20;99.90;;;;;;5100789;28;20428;-75
2023/01/07 08:50:27;;;;;;;0.55;0.55;;;8.20;99.90;;;;;;5081783;28;20448;-74
2023/01/07 08:52:54;;;;;;;1.02;0.65;;;8.30;99.90;;;;;;5082711;28;20505;-74
2023/01/07 08:55:22;;;;;;;0.60;0.60;;;8.30;99.90;;;;;;5084674;28;20453;-74
2023/01/07 08:57:49;;;;;;;0.35;0.35;;;8.30;99.90;;;;;;5085901;28;20425;-74
2023/01/07 09:00:17;;;;;;;0.50;0.50;;;8.30;99.90;;;;;;5081325;28;20425;-76
2023/01/07 09:02:44;;;;;;;0.40;0.40;;;8.40;99.90;;;;;;5086671;28;20435;-74
2023/01/07 09:05:11;;;;;;;0.60;0.60;;;8.40;99.90;;;;;;5086172;28;20427;-75
2023/01/07 09:07:41;;;;;;;0.80;0.40;;;8.40;99.90;;;;;;5082305;28;20916;-75
2023/01/07 09:10:10;;;;;;;0.40;0.40;;;8.50;99.90;;;;;;5078043;28;20454;-74
2023/01/07 09:12:37;;;;;;;0.50;0.40;;;8.40;99.90;;;;;;5076111;28;20480;-75
2023/01/07 09:15:04;;;;;;;0.80;0.80;;;8.50;99.90;;;;;;5087458;28;20416;-74
2023/01/07 09:17:31;;;;;;;0.40;0.40;;;8.50;99.90;;;;;;5085260;28;20489;-75
2023/01/07 09:20:02;;;;;;;1.42;0.70;;;8.50;99.90;;;;;;5093426;28;21044;-75
2023/01/07 09:22:31;;;;;;;0.50;0.50;;;8.60;99.90;;;;;;5077356;28;20486;-74
2023/01/07 09:24:57;;;;;;;0.60;0.32;;;8.60;99.90;;;;;;5083221;28;20971;-75
2023/01/07 09:27:25;;;;;;;0.40;0.30;;;8.70;99.90;;;;;;5090085;28;20439;-75
2023/01/07 09:29:57;;;;;;;0.50;0.50;;;8.80;99.90;;;;;;5085441;28;20433;-74
2023/01/07 09:32:27;;;;;;;0.32;0.32;;;8.80;99.90;;;;;;5073432;28;20429;-75
2023/01/07 09:35:00;;;;;;;0.40;0.40;;;8.90;99.90;;;;;;5076247;28;20439;-75
2023/01/07 09:37:26;;;;;;;0.20;0.20;;;8.90;99.90;;;;;;5083521;28;21051;-76
2023/01/07 09:39:53;;;;;;;0.60;0.60;;;9.00;99.90;;;;;;5088183;28;20435;-76
2023/01/07 09:42:41;;;;;;;0.23;0.23;;;9.10;99.90;;;;;;5089648;28;20613;-76
2023/01/07 09:45:22;;;;;;;0.20;0.20;;;9.20;99.90;;;;;;5079975;28;20424;-76
2023/01/07 09:47:53;;;;;;;0.30;0.30;;;9.30;99.90;;;;;;5090350;28;20425;-75
2023/01/07 09:50:45;;;;;;;0.68;0.38;;;9.40;99.90;;;;;;5097901;28;20443;-76
2023/01/07 09:53:18;;;;;;;0.30;0.30;;;9.40;99.90;;;;;;5091337;28;20434;-75
2023/01/07 09:55:49;;;;;;;0.30;0.30;;;9.40;99.90;;;;;;5081752;28;20427;-78
2023/01/07 09:58:36;;;;;;;0.40;0.40;;;9.40;99.90;;;;;;5090470;28;20894;-77
2023/01/07 10:01:19;;;;;;;0.50;0.50;;;9.40;99.90;;;;;;5087129;28;20500;-74
2023/01/07 10:03:46;;;;;;;0.60;0.45;;;9.40;99.90;;;;;;5078631;28;20892;-74
2023/01/07 10:06:42;;;;;;;0.57;0.57;;;9.50;99.90;;;;;;5087548;28;20475;-75
2023/01/07 10:09:44;;;;;;;0.20;0.20;;;9.50;99.90;;;;;;5087078;28;20428;-74
2023/01/07 10:12:29;;;;;;;0.40;0.40;;;9.70;99.90;;;;;;5091067;28;20422;-75
2023/01/07 10:15:33;;;;;;;0.30;0.30;;;9.80;99.90;;;;;;5091397;28;20490;-76
2023/01/07 10:18:24;;;;;;;0.35;0.35;;;9.80;99.90;;;;;;5089131;28;20445;-75
2023/01/07 10:21:17;;;;;;;0.47;0.47;;;10.00;99.90;;;;;;5072398;28;20432;-75
2023/01/07 10:23:50;;;;;;;0.38;0.38;;;10.00;99.90;;;;;;5080083;28;20828;-77
2023/01/07 10:26:40;;;;;;;0.45;0.45;;;10.10;99.90;;;;;;5096605;28;20429;-76
2023/01/07 10:29:30;;;;;;;0.30;0.30;;;10.20;99.90;;;;;;5083891;28;20429;-75
2023/01/07 10:32:07;;;;;;;0.50;0.50;;;10.30;99.90;;;;;;5085855;28;20438;-75
2023/01/07 10:34:44;;;;;;;0.80;0.63;;;10.30;99.90;;;;;;5089204;28;20437;-75
2023/01/07 10:37:31;;;;;;;0.22;0.22;;;10.30;99.90;;;;;;5086523;28;20463;-75
2023/01/07 10:40:23;;;;;;;0.40;0.40;;;10.30;99.90;;;;;;5067061;28;20936;-75
2023/01/07 10:43:13;;;;;;;0.38;0.38;;;10.40;99.90;;;;;;5083656;28;20499;-75
2023/01/07 10:45:40;;;;;;;0.30;0.30;;;10.40;99.90;;;;;;5099051;28;20555;-75
2023/01/07 10:48:20;;;;;;;0.50;0.30;;;10.50;99.90;;;;;;5100038;28;20441;-75
2023/01/07 10:50:49;;;;;;;0.30;0.30;;;10.50;99.90;;;;;;5099482;28;20485;-75
2023/01/07 10:53:48;;;;;;;0.20;0.20;;;10.40;99.90;;;;;;5093808;28;20466;-74
2023/01/07 10:56:15;;;;;;;0.28;0.28;;;10.60;99.90;;;;;;5094472;28;20819;-75
2023/01/07 10:58:44;;;;;;;0.30;0.30;;;10.60;99.90;;;;;;5087307;28;20785;-76
2023/01/07 11:01:21;;;;;;;0.50;0.50;;;10.60;99.90;;;;;;5087172;28;20454;-75
2023/01/07 11:03:51;;;;;;;0.50;0.50;;;10.70;99.90;;;;;;5085364;28;20462;-75
2023/01/07 11:06:56;;;;;;;0.30;0.30;;;10.70;99.90;;;;;;5070862;28;20510;-77
2023/01/07 11:09:28;;;;;;;0.50;0.50;;;10.70;99.90;;;;;;5090135;28;20438;-76
2023/01/07 11:11:59;;;;;;;0.30;0.30;;;10.80;99.90;;;;;;5086305;28;20996;-76
2023/01/07 11:14:34;;;;;;;0.40;0.40;;;10.90;99.90;;;;;;5070640;28;20480;-76
2023/01/07 11:17:14;;;;;;;0.20;0.20;;;10.80;99.90;;;;;;5087391;28;20785;-76
2023/01/07 11:19:48;;;;;;;0.68;0.47;;;10.60;99.90;;;;;;5089447;28;20944;-75
2023/01/07 11:22:32;;;;;;;0.20;0.20;;;10.50;99.90;;;;;;5099845;28;20428;-76
2023/01/07 11:25:01;;;;;;;0.20;0.20;;;10.40;99.90;;;;;;5091481;28;20473;-75
2023/01/07 11:27:33;;;;;;;0.50;0.50;;;10.40;99.90;;;;;;5082953;28;20427;-75
2023/01/07 11:30:18;;;;;;;0.20;0.20;;;10.40;99.90;;;;;;5097382;28;20788;-76
2023/01/07 11:32:54;;;;;;;0.30;0.30;;;10.40;99.90;;;;;;5078860;28;20431;-76
2023/01/07 11:35:22;;;;;;;0.20;0.20;;;10.40;99.90;;;;;;5098632;28;21419;-75
2023/01/07 11:37:49;;;;;;;0.33;0.33;;;10.40;99.90;;;;;;5073029;28;20517;-75
2023/01/07 11:40:18;;;;;;;0.30;0.30;;;10.40;99.90;;;;;;5092309;28;20495;-76
2023/01/07 11:43:21;;;;;;;0.20;0.20;;;10.40;99.90;;;;;;5095039;28;20778;-76
2023/01/07 11:45:49;;;;;;;0.38;0.38;;;10.20;99.90;;;;;;5082682;28;20429;-76
2023/01/07 11:48:41;;;;;;;0.20;0.20;;;10.30;99.90;;;;;;5095055;28;20426;-76
2023/01/07 11:51:09;;;;;;;0.88;0.28;;;10.30;99.90;;;;;;5086158;28;20428;-77
2023/01/07 11:53:49;;;;;;;0.20;0.20;;;10.20;99.90;;;;;;5098186;28;20429;-76
2023/01/07 11:56:19;;;;;;;0.28;0.20;;;10.20;99.90;;;;;;5088128;28;20444;-78
2023/01/07 11:59:11;;;;;;;0.25;0.25;;;10.20;99.90;;;;;;5091106;28;20779;-76
2023/01/07 12:01:49;;;;;;;0.40;0.40;;;10.20;99.90;;;;;;5091094;28;20421;-76
2023/01/07 12:04:34;;;;;;;0.30;0.30;;;10.10;99.90;;;;;;5090441;28;20430;-76
2023/01/07 12:07:11;;;;;;;0.20;0.20;;;10.00;99.90;;;;;;5085006;28;20458;-75
2023/01/07 12:09:40;;;;;;;0.30;0.30;;;10.00;99.90;;;;;;5102215;28;20428;-76
2023/01/07 12:12:30;;;;;;;0.40;0.40;;;10.00;99.90;;;;;;5108590;28;20483;-76
2023/01/07 12:15:25;;;;;;;2.70;0.20;;;10.00;99.90;;;;;;5096393;28;20432;-76
2023/01/07 12:18:27;;;;;;;0.30;0.30;;;10.00;99.90;;;;;;5081938;28;20445;-76
2023/01/07 12:21:05;;;;;;;0.60;0.30;;;9.90;99.90;;;;;;5090927;28;20556;-76
2023/01/07 12:23:48;;;;;;;0.30;0.30;;;9.90;99.90;;;;;;5094267;28;20517;-75
2023/01/07 12:26:44;;;;;;;0.30;0.30;;;9.90;99.90;;;;;;5091198;28;20417;-75
2023/01/07 12:29:48;;;;;;;0.20;0.20;;;9.80;99.90;;;;;;5057094;28;20983;-76
2023/01/07 12:32:20;;;;;;;0.10;0.10;;;9.80;99.90;;;;;;5075282;28;20427;-76
2023/01/07 12:35:02;;;;;;;0.38;0.38;;;9.80;99.90;;;;;;5075670;28;20517;-76
2023/01/07 12:37:58;;;;;;;0.30;0.30;;;9.80;99.90;;;;;;5097278;28;20986;-75
2023/01/07 12:40:31;;;;;;;0.35;0.35;;;9.80;99.90;;;;;;5094032;28;20433;-75
2023/01/07 12:43:26;;;;;;;0.30;0.30;;;9.80;99.90;;;;;;5075944;28;20923;-76
2023/01/07 12:45:58;;;;;;;0.80;0.40;;;9.70;99.90;;;;;;5091509;28;20506;-77
2023/01/07 12:49:03;;;;;;;0.32;0.30;;;9.70;99.90;;;;;;5099659;28;20424;-76
2023/01/07 12:51:37;;;;;;;0.38;0.38;;;9.70;99.90;;;;;;5087877;28;20430;-76
2023/01/07 12:54:26;;;;;;;0.30;0.30;;;9.80;99.90;;;;;;5101006;28;20424;-75
2023/01/07 12:57:02;;;;;;;2.10;0.30;;;9.70;99.90;;;;;;5089714;28;20438;-75
2023/01/07 12:59:40;;;;;;;0.40;0.40;;;9.70;99.90;;;;;;5092731;28;20775;-75
2023/01/07 13:02:47;;;;;;;0.40;0.40;;;9.70;99.90;;;;;;5101067;28;20436;-75
2023/01/07 13:05:37;;;;;;;0.20;0.20;;;9.70;99.90;;;;;;5090147;28;20420;-75
2023/01/07 13:08:29;;;;;;;0.40;0.40;;;9.70;99.90;;;;;;5102128;28;20931;-75
2023/01/07 13:11:02;;;;;;;0.22;0.22;;;9.70;99.90;;;;;;5093301;28;20430;-75
2023/01/07 13:13:47;;;;;;;0.50;0.50;;;9.70;99.90;;;;;;5101844;28;20423;-75
2023/01/07 13:16:14;;;;;;;0.22;0.22;;;9.70;99.90;;;;;;5087942;28;20513;-76
2023/01/07 13:18:40;;;;;;;0.30;0.30;;;9.70;99.90;;;;;;5092059;28;20454;-75
2023/01/07 13:21:17;;;;;;;0.38;0.38;;;9.70;99.90;;;;;;5082171;28;20432;-75
2023/01/07 13:23:56;;;;;;;0.30;0.30;;;9.70;99.90;;;;;;5086012;28;20439;-75
2023/01/07 13:26:30;;;;;;;0.30;0.30;;;9.70;99.90;;;;;;5077555;28;20472;-75
2023/01/07 13:29:05;;;;;;;0.40;0.40;;;9.70;99.90;;;;;;5097499;28;20432;-75
2023/01/07 13:31:59;;;;;;;0.13;0.13;;;9.70;99.90;;;;;;5086942;28;20442;-75